createdAt,value
2019-03-21T00:00:41.276Z,92.10
2019-03-21T00:03:10.650Z,92.10
2019-03-21T00:05:39.999Z,92.20
2019-03-21T00:08:10.643Z,92.10
2019-03-21T00:11:23.702Z,92.10
2019-03-21T00:13:54.454Z,92.10
2019-03-21T00:16:23.838Z,92.20
2019-03-21T00:18:53.418Z,92.20
2019-03-21T00:21:24.926Z,92.10
2019-03-21T00:23:54.525Z,92.10
2019-03-21T00:26:24.554Z,92.20
2019-03-21T00:28:54.130Z,92.20
2019-03-21T00:31:23.796Z,92.20
2019-03-21T00:33:53.333Z,92.20
2019-03-21T00:36:24.391Z,92.30
2019-03-21T00:38:53.976Z,92.30
2019-03-21T00:41:23.354Z,92.30
2019-03-21T00:43:52.679Z,92.30
2019-03-21T00:46:22.047Z,92.40
2019-03-21T00:48:51.716Z,92.40
2019-03-21T00:51:30.248Z,92.40
2019-03-21T00:54:01.672Z,92.50
2019-03-21T00:56:31.297Z,92.80
2019-03-21T00:59:00.648Z,92.50
2019-03-21T01:01:30.220Z,92.50
2019-03-21T01:03:59.677Z,92.50
2019-03-21T01:06:30.093Z,92.50
2019-03-21T01:08:59.585Z,92.50
2019-03-21T01:11:29.157Z,92.60
2019-03-21T01:13:58.839Z,92.50
2019-03-21T01:16:28.163Z,92.60
2019-03-21T01:18:57.855Z,92.60
2019-03-21T01:21:28.223Z,92.50
2019-03-21T01:23:57.617Z,92.70
2019-03-21T01:26:27.495Z,92.70
2019-03-21T01:28:57.061Z,92.70
2019-03-21T01:31:26.717Z,92.70
2019-03-21T01:33:56.904Z,92.70
2019-03-21T01:36:26.568Z,92.80
2019-03-21T01:38:55.884Z,92.70
2019-03-21T01:41:25.562Z,92.70
2019-03-21T01:43:54.913Z,92.70
2019-03-21T01:46:24.388Z,92.70
2019-03-21T01:48:53.703Z,92.70
2019-03-21T01:51:23.134Z,92.70
2019-03-21T01:53:53.044Z,92.70
2019-03-21T01:58:59.185Z,92.70
2019-03-21T02:01:28.560Z,92.70
2019-03-21T02:03:57.899Z,92.70
2019-03-21T02:06:31.724Z,92.70
2019-03-21T02:09:01.072Z,92.80
2019-03-21T02:11:31.070Z,92.80
2019-03-21T02:14:00.396Z,92.80
2019-03-21T02:16:30.127Z,92.90
2019-03-21T02:19:00.525Z,92.90
2019-03-21T02:21:29.984Z,92.90
2019-03-21T02:23:59.305Z,92.90
2019-03-21T02:26:29.489Z,92.90
2019-03-21T02:28:58.811Z,93.00
2019-03-21T02:31:28.262Z,93.00
2019-03-21T02:33:57.833Z,93.00
2019-03-21T02:36:29.588Z,93.00
2019-03-21T02:38:58.915Z,93.00
2019-03-21T02:41:28.280Z,93.00
2019-03-21T02:43:57.948Z,93.00
2019-03-21T02:46:27.519Z,93.10
2019-03-21T02:48:57.186Z,93.00
2019-03-21T02:51:26.763Z,93.10
2019-03-21T02:53:56.302Z,93.10
2019-03-21T02:56:26.095Z,93.00
2019-03-21T02:58:56.207Z,93.10
2019-03-21T03:01:25.588Z,93.20
2019-03-21T03:03:55.223Z,93.20
2019-03-21T03:06:24.619Z,93.30
2019-03-21T03:08:54.136Z,93.30
2019-03-21T03:11:30.692Z,93.20
2019-03-21T03:14:00.155Z,93.20
2019-03-21T03:16:29.569Z,93.20
2019-03-21T03:18:58.948Z,93.20
2019-03-21T03:21:28.367Z,93.20
2019-03-21T03:23:57.934Z,93.30
2019-03-21T03:26:27.865Z,93.30
2019-03-21T03:28:57.202Z,93.40
2019-03-21T03:31:26.697Z,93.30
2019-03-21T03:33:56.312Z,93.30
2019-03-21T03:36:25.717Z,93.30
2019-03-21T03:38:55.668Z,93.20
2019-03-21T03:41:25.311Z,93.20
2019-03-21T03:43:56.309Z,93.10
2019-03-21T03:46:25.958Z,93.10
2019-03-21T03:48:55.561Z,93.20
2019-03-21T03:51:24.911Z,93.20
2019-03-21T03:53:54.504Z,93.30
2019-03-21T03:56:24.484Z,93.30
2019-03-21T03:58:54.895Z,93.30
2019-03-21T04:01:24.281Z,93.30
2019-03-21T04:03:54.156Z,93.30
2019-03-21T04:06:23.491Z,93.40
2019-03-21T04:08:53.029Z,93.40
2019-03-21T04:11:22.798Z,93.40
2019-03-21T04:13:52.130Z,93.40
2019-03-21T04:16:21.887Z,93.40
2019-03-21T04:18:51.700Z,93.40
2019-03-21T04:21:21.056Z,93.40
2019-03-21T04:23:50.466Z,93.40
2019-03-21T04:26:23.409Z,93.50
2019-03-21T04:28:53.115Z,93.50
2019-03-21T04:31:22.911Z,93.50
2019-03-21T04:33:54.135Z,93.50
2019-03-21T04:36:23.721Z,93.40
2019-03-21T04:38:53.298Z,93.60
2019-03-21T04:41:22.621Z,93.40
2019-03-21T04:43:55.893Z,93.40
2019-03-21T04:46:25.246Z,93.40
2019-03-21T04:48:54.996Z,93.40
2019-03-21T04:51:24.315Z,93.40
2019-03-21T04:53:55.115Z,93.40
2019-03-21T04:56:25.055Z,93.40
2019-03-21T04:58:54.430Z,93.50
2019-03-21T05:01:24.448Z,93.50
2019-03-21T05:03:54.103Z,93.50
2019-03-21T05:06:23.887Z,93.50
2019-03-21T05:08:53.794Z,93.50
2019-03-21T05:11:23.105Z,93.60
2019-03-21T05:17:22.064Z,93.70
2019-03-21T05:19:51.851Z,93.70
2019-03-21T05:22:22.404Z,93.60
2019-03-21T05:24:51.850Z,93.60
2019-03-21T05:27:21.316Z,93.50
2019-03-21T05:29:50.882Z,93.60
2019-03-21T05:32:20.221Z,93.60
2019-03-21T05:34:52.066Z,93.70
2019-03-21T05:37:21.931Z,93.70
2019-03-21T05:39:51.812Z,93.70
2019-03-21T05:42:23.176Z,93.80
2019-03-21T05:44:52.623Z,93.70
2019-03-21T05:47:22.339Z,93.70
2019-03-21T05:49:51.743Z,93.70
2019-03-21T05:52:21.396Z,93.70
2019-03-21T05:54:50.839Z,93.70
2019-03-21T05:57:20.527Z,93.70
2019-03-21T05:59:49.961Z,93.70
2019-03-21T06:02:20.045Z,93.70
2019-03-21T06:04:49.555Z,93.70
2019-03-21T06:07:42.235Z,93.80
2019-03-21T06:10:13.454Z,93.80
2019-03-21T06:12:46.450Z,93.80
2019-03-21T06:15:18.845Z,93.80
2019-03-21T06:17:59.441Z,93.80
2019-03-21T06:20:41.895Z,93.90
2019-03-21T06:23:44.099Z,93.90
2019-03-21T06:26:30.301Z,93.90
2019-03-21T06:29:00.126Z,94.00
2019-03-21T06:31:29.587Z,94.00
2019-03-21T06:33:59.285Z,93.90
2019-03-21T06:36:30.251Z,93.90
2019-03-21T06:38:59.696Z,93.90
2019-03-21T06:41:29.677Z,93.80
2019-03-21T06:43:59.382Z,93.80
2019-03-21T06:46:28.794Z,93.90
2019-03-21T06:48:58.252Z,93.90
2019-03-21T06:51:27.992Z,93.90
2019-03-21T06:53:57.839Z,93.90
2019-03-21T06:56:28.258Z,93.90
2019-03-21T06:58:58.044Z,93.70
2019-03-21T07:01:27.776Z,93.60
2019-03-21T07:04:06.565Z,93.60
2019-03-21T07:06:28.393Z,93.50
2019-03-21T07:08:58.954Z,93.50
2019-03-21T07:11:29.012Z,93.50
2019-03-21T07:13:58.725Z,93.50
2019-03-21T07:16:28.666Z,93.40
2019-03-21T07:18:58.380Z,93.40
2019-03-21T07:21:27.836Z,93.60
2019-03-21T07:23:57.623Z,93.30
2019-03-21T07:26:27.190Z,93.20
2019-03-21T07:28:57.103Z,93.30
2019-03-21T07:31:35.662Z,93.20
2019-03-21T07:34:05.533Z,93.20
2019-03-21T07:36:35.016Z,93.20
2019-03-21T07:39:07.249Z,93.20
2019-03-21T07:41:36.945Z,93.20
2019-03-21T07:44:06.378Z,93.20
2019-03-21T07:46:36.175Z,93.20
2019-03-21T07:49:05.914Z,93.20
2019-03-21T07:51:35.390Z,93.10
2019-03-21T07:54:05.076Z,93.20
2019-03-21T07:56:34.775Z,93.10
2019-03-21T07:59:04.206Z,93.20
2019-03-21T08:01:33.867Z,93.20
2019-03-21T08:04:03.730Z,93.20
2019-03-21T08:06:33.310Z,93.10
2019-03-21T08:09:03.208Z,93.10
2019-03-21T08:11:32.767Z,93.20
2019-03-21T08:14:02.286Z,93.20
2019-03-21T08:16:31.844Z,93.20
2019-03-21T08:19:01.654Z,93.20
2019-03-21T08:21:31.117Z,93.30
2019-03-21T08:24:00.809Z,93.30
2019-03-21T08:26:30.676Z,93.30
2019-03-21T08:29:00.172Z,93.40
2019-03-21T08:31:29.813Z,93.60
2019-03-21T08:33:59.599Z,93.30
2019-03-21T08:36:29.505Z,93.30
2019-03-21T08:38:59.155Z,93.30
2019-03-21T08:41:28.748Z,93.30
2019-03-21T08:43:59.220Z,93.30
2019-03-21T08:46:28.839Z,93.20
2019-03-21T08:48:58.569Z,93.50
2019-03-21T08:51:28.292Z,93.20
2019-03-21T08:53:57.835Z,93.10
2019-03-21T08:56:32.617Z,93.10
2019-03-21T08:59:02.224Z,93.10
2019-03-21T09:01:31.798Z,93.10
2019-03-21T09:04:01.342Z,93.10
2019-03-21T09:06:31.176Z,93.10
2019-03-21T09:09:08.981Z,93.00
2019-03-21T09:11:38.699Z,93.00
2019-03-21T09:14:08.162Z,92.90
2019-03-21T09:16:37.607Z,93.20
2019-03-21T09:19:07.399Z,92.80
2019-03-21T09:21:37.888Z,92.80
2019-03-21T09:24:07.404Z,92.70
2019-03-21T09:26:37.245Z,92.70
2019-03-21T09:29:13.995Z,92.70
2019-03-21T09:31:49.703Z,92.60
2019-03-21T09:34:19.181Z,92.10
2019-03-21T09:36:57.504Z,92.00
2019-03-21T09:39:27.425Z,92.00
2019-03-21T09:42:01.102Z,92.00
2019-03-21T09:44:30.717Z,91.90
2019-03-21T09:47:08.790Z,91.90
2019-03-21T09:49:41.441Z,91.80
2019-03-21T09:52:11.254Z,91.70
2019-03-21T09:54:40.935Z,91.70
2019-03-21T09:57:10.672Z,91.60
2019-03-21T09:59:41.502Z,91.60
2019-03-21T10:02:11.238Z,91.50
2019-03-21T10:04:40.713Z,91.40
2019-03-21T10:07:10.862Z,91.40
2019-03-21T10:09:42.650Z,91.30
2019-03-21T10:12:12.349Z,91.20
2019-03-21T10:14:42.538Z,91.20
2019-03-21T10:17:12.927Z,91.10
2019-03-21T10:19:50.786Z,91.00
2019-03-21T10:22:20.489Z,91.00
2019-03-21T10:24:50.498Z,91.00
2019-03-21T10:27:20.335Z,90.90
2019-03-21T10:29:54.447Z,90.80
2019-03-21T10:32:24.523Z,90.60
2019-03-21T10:34:54.053Z,90.50
2019-03-21T10:37:23.569Z,90.50
2019-03-21T10:39:53.340Z,90.40
2019-03-21T10:42:22.984Z,90.20
2019-03-21T10:44:52.950Z,90.10
2019-03-21T10:47:22.772Z,89.70
2019-03-21T10:49:52.656Z,89.70
2019-03-21T10:52:25.490Z,89.70
2019-03-21T10:54:55.378Z,89.50
2019-03-21T10:57:27.431Z,89.50
2019-03-21T11:00:03.675Z,89.20
2019-03-21T11:02:33.827Z,89.00
2019-03-21T11:05:17.444Z,88.90
2019-03-21T11:07:47.140Z,88.50
2019-03-21T11:10:16.903Z,88.50
2019-03-21T11:12:46.687Z,88.10
2019-03-21T11:15:16.755Z,88.00
2019-03-21T11:17:46.811Z,87.90
2019-03-21T11:20:32.233Z,87.70
2019-03-21T11:23:02.124Z,87.50
2019-03-21T11:25:32.220Z,87.20
2019-03-21T11:28:02.353Z,87.10
2019-03-21T11:30:34.069Z,87.20
2019-03-21T11:33:04.693Z,86.80
2019-03-21T11:35:35.840Z,86.80
2019-03-21T11:38:06.644Z,86.40
2019-03-21T11:40:36.651Z,86.30
2019-03-21T11:43:08.767Z,86.10
2019-03-21T11:45:38.888Z,85.00
2019-03-21T11:48:08.952Z,85.30
2019-03-21T11:50:39.272Z,85.50
2019-03-21T11:53:12.335Z,85.30
2019-03-21T11:55:42.087Z,85.30
2019-03-21T11:58:11.626Z,85.70
2019-03-21T12:00:49.338Z,85.00
2019-03-21T12:03:18.981Z,84.40
2019-03-21T12:05:48.894Z,84.80
2019-03-21T12:08:18.714Z,84.80
2019-03-21T12:10:54.474Z,85.30
2019-03-21T12:13:25.076Z,84.30
2019-03-21T12:15:54.679Z,84.30
2019-03-21T12:18:24.108Z,84.00
2019-03-21T12:20:54.023Z,83.90
2019-03-21T12:23:23.694Z,83.20
2019-03-21T12:25:54.729Z,83.20
2019-03-21T12:28:24.209Z,82.70
2019-03-21T12:30:53.867Z,82.70
2019-03-21T12:33:23.548Z,82.80
2019-03-21T12:35:53.234Z,82.80
2019-03-21T12:38:23.159Z,82.30
2019-03-21T12:40:53.197Z,82.00
2019-03-21T12:43:22.814Z,81.90
2019-03-21T12:45:53.084Z,81.80
2019-03-21T12:48:23.774Z,81.50
2019-03-21T12:50:53.409Z,80.70
2019-03-21T12:53:23.205Z,81.20
2019-03-21T12:55:53.367Z,81.50
2019-03-21T12:58:25.389Z,81.40
2019-03-21T13:00:56.449Z,81.30
2019-03-21T13:03:26.078Z,80.70
2019-03-21T13:05:55.725Z,80.50
2019-03-21T13:08:33.826Z,80.80
2019-03-21T13:10:57.071Z,80.70
2019-03-21T13:13:26.905Z,80.40
2019-03-21T13:15:56.546Z,80.20
2019-03-21T13:18:26.483Z,78.80
2019-03-21T13:20:56.128Z,79.40
2019-03-21T13:23:25.567Z,79.60
2019-03-21T13:28:26.371Z,79.50
2019-03-21T13:30:56.520Z,80.00
2019-03-21T13:33:26.566Z,79.90
2019-03-21T13:35:56.347Z,79.80
2019-03-21T13:38:26.056Z,79.80
2019-03-21T13:40:56.223Z,79.70
2019-03-21T13:43:25.910Z,79.50
2019-03-21T13:45:55.747Z,79.40
2019-03-21T13:48:25.565Z,79.40
2019-03-21T13:50:55.249Z,79.30
2019-03-21T13:53:25.267Z,78.30
2019-03-21T13:55:54.851Z,79.10
2019-03-21T13:58:24.557Z,79.10
2019-03-21T14:00:54.161Z,78.80
2019-03-21T14:03:25.393Z,78.30
2019-03-21T14:05:55.541Z,78.30
2019-03-21T14:08:25.076Z,78.50
2019-03-21T14:10:54.742Z,78.70
2019-03-21T14:13:30.455Z,78.80
2019-03-21T14:16:00.047Z,78.70
2019-03-21T14:18:29.739Z,78.40
2019-03-21T14:20:59.306Z,78.30
2019-03-21T14:23:42.458Z,78.00
2019-03-21T14:26:10.649Z,78.00
2019-03-21T14:28:46.577Z,77.60
2019-03-21T14:31:16.295Z,77.80
2019-03-21T14:33:45.941Z,77.60
2019-03-21T14:36:25.931Z,77.00
2019-03-21T14:38:58.405Z,76.40
2019-03-21T14:41:28.437Z,77.20
2019-03-21T14:43:58.511Z,77.00
2019-03-21T14:46:28.174Z,76.20
2019-03-21T14:48:59.328Z,76.70
2019-03-21T14:51:29.716Z,76.70
2019-03-21T14:53:59.577Z,76.30
2019-03-21T14:56:29.325Z,76.40
2019-03-21T14:58:59.094Z,76.50
2019-03-21T15:01:28.528Z,76.50
2019-03-21T15:03:58.593Z,76.10
2019-03-21T15:06:28.115Z,76.00
2019-03-21T15:08:59.919Z,76.00
2019-03-21T15:11:30.148Z,75.60
2019-03-21T15:13:59.792Z,74.90
2019-03-21T15:16:29.605Z,74.10
2019-03-21T15:18:59.615Z,73.40
2019-03-21T15:21:29.466Z,74.70
2019-03-21T15:23:59.983Z,74.70
2019-03-21T15:26:30.226Z,73.90
2019-03-21T15:28:59.991Z,73.60
2019-03-21T15:31:29.927Z,73.20
2019-03-21T15:34:23.732Z,74.30
2019-03-21T15:36:54.954Z,73.80
2019-03-21T15:39:28.606Z,73.60
2019-03-21T15:41:58.439Z,73.50
2019-03-21T15:44:30.551Z,74.10
2019-03-21T15:47:00.364Z,74.10
2019-03-21T15:49:30.142Z,74.70
2019-03-21T15:52:00.113Z,75.00
2019-03-21T15:54:35.891Z,75.50
2019-03-21T15:57:05.949Z,75.50
2019-03-21T15:59:35.626Z,75.70
2019-03-21T16:02:05.862Z,75.70
2019-03-21T16:04:49.287Z,75.80
2019-03-21T16:07:18.972Z,75.80
2019-03-21T16:09:48.414Z,75.90
2019-03-21T16:12:18.535Z,76.00
2019-03-21T16:14:49.295Z,75.70
2019-03-21T16:17:20.122Z,76.20
2019-03-21T16:19:49.972Z,75.20
2019-03-21T16:22:19.436Z,76.20
2019-03-21T16:24:49.482Z,76.50
2019-03-21T16:27:19.629Z,76.50
2019-03-21T16:29:49.839Z,76.40
2019-03-21T16:32:40.226Z,76.50
2019-03-21T16:35:16.059Z,77.30
2019-03-21T16:37:49.956Z,76.40
2019-03-21T16:40:19.458Z,76.60
2019-03-21T16:42:49.261Z,76.90
2019-03-21T16:45:21.303Z,76.90
2019-03-21T16:47:50.526Z,76.80
2019-03-21T16:50:20.549Z,76.90
2019-03-21T16:52:51.275Z,76.60
2019-03-21T16:55:21.355Z,76.80
2019-03-21T16:57:51.052Z,76.60
2019-03-21T17:00:21.180Z,76.20
2019-03-21T17:02:51.124Z,76.80
2019-03-21T17:05:22.331Z,77.00
2019-03-21T17:07:52.443Z,77.00
2019-03-21T17:10:22.322Z,77.30
2019-03-21T17:12:52.247Z,77.40
2019-03-21T17:15:21.883Z,77.60
2019-03-21T17:17:51.877Z,76.90
2019-03-21T17:20:31.081Z,77.20
2019-03-21T17:23:00.873Z,76.30
2019-03-21T17:25:31.532Z,77.20
2019-03-21T17:28:04.082Z,77.00
2019-03-21T17:30:33.809Z,77.30
2019-03-21T17:33:12.845Z,77.50
2019-03-21T17:35:42.479Z,77.80
2019-03-21T17:38:12.283Z,77.80
2019-03-21T17:40:41.722Z,78.00
2019-03-21T17:43:11.138Z,78.10
2019-03-21T17:45:52.998Z,78.10
2019-03-21T17:48:22.566Z,78.20
2019-03-21T17:50:56.408Z,78.10
2019-03-21T17:53:26.474Z,78.10
2019-03-21T17:55:56.425Z,78.20
2019-03-21T17:58:28.946Z,78.20
2019-03-21T18:00:58.815Z,78.20
2019-03-21T18:03:36.696Z,78.30
2019-03-21T18:06:06.423Z,78.10
2019-03-21T18:08:36.199Z,78.40
2019-03-21T18:11:05.790Z,78.40
2019-03-21T18:13:53.815Z,79.00
2019-03-21T18:16:23.310Z,78.40
2019-03-21T18:18:52.895Z,78.40
2019-03-21T18:21:22.342Z,78.50
2019-03-21T18:23:52.396Z,78.60
2019-03-21T18:26:21.945Z,78.80
2019-03-21T18:28:51.442Z,79.00
2019-03-21T18:31:21.286Z,79.00
2019-03-21T18:34:03.146Z,79.00
2019-03-21T18:36:32.735Z,79.10
2019-03-21T18:39:02.466Z,79.30
2019-03-21T18:41:32.115Z,79.40
2019-03-21T18:44:15.106Z,79.50
2019-03-21T18:46:44.459Z,79.70
2019-03-21T18:49:14.295Z,79.80
2019-03-21T18:51:43.722Z,79.90
2019-03-21T18:54:13.222Z,79.80
2019-03-21T18:56:42.714Z,79.90
2019-03-21T18:59:12.374Z,80.00
2019-03-21T19:01:42.006Z,80.00
2019-03-21T19:04:11.489Z,80.00
2019-03-21T19:06:41.318Z,80.10
2019-03-21T19:09:10.792Z,80.20
2019-03-21T19:11:40.255Z,80.20
2019-03-21T19:14:09.830Z,80.20
2019-03-21T19:16:39.647Z,80.30
2019-03-21T19:19:09.074Z,80.20
2019-03-21T19:21:38.866Z,80.20
2019-03-21T19:24:08.354Z,80.30
2019-03-21T19:26:37.966Z,80.40
2019-03-21T19:29:07.487Z,80.30
2019-03-21T19:31:37.222Z,80.40
2019-03-21T19:34:24.816Z,80.70
2019-03-21T19:36:54.330Z,80.60
2019-03-21T19:39:23.831Z,80.70
2019-03-21T19:41:53.257Z,80.70
2019-03-21T19:44:22.963Z,80.90
2019-03-21T19:46:52.772Z,80.80
2019-03-21T19:49:22.633Z,80.90
2019-03-21T19:51:53.261Z,81.10
2019-03-21T19:54:23.031Z,81.10
2019-03-21T19:56:52.652Z,81.30
2019-03-21T19:59:22.234Z,81.40
2019-03-21T20:01:52.699Z,81.50
2019-03-21T20:04:22.412Z,81.60
2019-03-21T20:06:51.914Z,81.70
2019-03-21T20:09:21.511Z,81.90
2019-03-21T20:11:51.004Z,83.10
2019-03-21T20:14:20.618Z,83.90
2019-03-21T20:16:50.133Z,83.20
2019-03-21T20:19:19.545Z,83.20
2019-03-21T20:21:49.056Z,83.20
2019-03-21T20:24:18.639Z,83.20
2019-03-21T20:26:48.226Z,83.40
2019-03-21T20:29:18.699Z,83.50
2019-03-21T20:31:48.285Z,83.60
2019-03-21T20:34:17.716Z,83.60
2019-03-21T20:36:47.319Z,83.60
2019-03-21T20:39:16.859Z,83.80
2019-03-21T20:41:46.332Z,83.80
2019-03-21T20:44:16.937Z,84.00
2019-03-21T20:46:46.471Z,84.10
2019-03-21T20:49:15.903Z,84.10
2019-03-21T20:51:47.712Z,84.20
2019-03-21T20:54:17.806Z,84.30
2019-03-21T20:56:47.300Z,84.30
2019-03-21T20:59:16.823Z,84.40
2019-03-21T21:01:46.597Z,84.50
2019-03-21T21:04:16.034Z,84.60
2019-03-21T21:06:45.489Z,84.60
2019-03-21T21:09:15.031Z,84.70
2019-03-21T21:11:44.512Z,84.80
2019-03-21T21:14:13.965Z,84.80
2019-03-21T21:16:43.334Z,84.90
2019-03-21T21:19:12.887Z,85.00
2019-03-21T21:22:07.937Z,85.40
2019-03-21T21:24:37.688Z,84.80
2019-03-21T21:27:07.225Z,84.80
2019-03-21T21:29:36.779Z,85.00
2019-03-21T21:32:06.286Z,85.00
2019-03-21T21:34:35.856Z,85.10
2019-03-21T21:37:06.659Z,85.10
2019-03-21T21:39:36.454Z,85.20
2019-03-21T21:42:06.272Z,85.20
2019-03-21T21:44:35.802Z,85.40
2019-03-21T21:47:11.781Z,85.50
2019-03-21T21:49:41.210Z,85.50
2019-03-21T21:52:11.363Z,85.70
2019-03-21T21:54:42.042Z,85.60
2019-03-21T21:57:11.843Z,85.80
2019-03-21T21:59:41.627Z,85.70
2019-03-21T22:02:14.206Z,86.50
2019-03-21T22:04:43.926Z,86.00
2019-03-21T22:07:13.661Z,86.00
2019-03-21T22:09:43.254Z,86.10
2019-03-21T22:12:12.975Z,86.20
2019-03-21T22:14:42.666Z,86.30
2019-03-21T22:17:12.161Z,86.30
2019-03-21T22:19:41.835Z,86.50
2019-03-21T22:22:11.471Z,86.60
2019-03-21T22:24:40.958Z,86.50
2019-03-21T22:27:10.526Z,86.50
2019-03-21T22:29:40.157Z,86.50
2019-03-21T22:32:10.974Z,86.60
2019-03-21T22:34:40.500Z,86.60
2019-03-21T22:37:09.986Z,86.70
2019-03-21T22:39:39.564Z,86.80
2019-03-21T22:42:09.283Z,86.80
2019-03-21T22:44:40.111Z,86.90
2019-03-21T22:47:09.575Z,87.00
2019-03-21T22:49:39.386Z,87.00
2019-03-21T22:52:08.878Z,87.20
2019-03-21T22:54:38.466Z,87.20
2019-03-21T22:57:08.027Z,87.50
2019-03-21T22:59:37.611Z,87.60
2019-03-21T23:02:09.439Z,87.80
2019-03-21T23:04:39.053Z,88.00
2019-03-21T23:07:08.630Z,88.00
2019-03-21T23:09:38.227Z,88.00
2019-03-21T23:12:08.006Z,88.00
2019-03-21T23:14:37.481Z,88.20
2019-03-21T23:17:07.214Z,88.10
2019-03-21T23:19:37.017Z,88.10
2019-03-21T23:22:06.533Z,88.10
2019-03-21T23:24:37.178Z,88.10
2019-03-21T23:27:06.804Z,88.10
2019-03-21T23:29:36.221Z,88.10
2019-03-21T23:32:05.780Z,88.10
2019-03-21T23:34:35.764Z,88.20
2019-03-21T23:37:06.333Z,88.30
2019-03-21T23:39:35.721Z,88.50
2019-03-21T23:42:05.337Z,88.50
2019-03-21T23:44:34.982Z,88.60
2019-03-21T23:47:04.503Z,88.90
2019-03-21T23:49:34.125Z,88.90
2019-03-21T23:52:04.066Z,88.90
2019-03-21T23:54:33.691Z,89.00
2019-03-21T23:57:04.776Z,89.10
2019-03-21T23:59:36.511Z,89.20
